Terminal Aerodrome Forecast
Issued by NWS Wilmington, NC

Current Version | Previous Version | Graphics & Text | Print | Product List | Glossary Off
Versions: 1 2 3 4 5 6 7 8 9 10 11 12 13 14 15 16 17 18

000
FTUS42 KILM 022320
TAFMYR
TAF
KMYR 022320Z 0300/0324 18011KT P6SM SCT050 SCT250
     FM030400 26004KT P6SM FEW060 SCT250
     FM031300 30007KT P6SM SCT060 SCT120 SCT250
      AMD LTD TO CLD VIS AND WIND TIL 031100=

USA.gov is the U.S. government's official web portal to all federal, state and local government web resources and services.